createdAt,value
2023-05-13T00:02:22.393Z,4.28
2023-05-13T00:04:49.565Z,5.25
2023-05-13T00:07:16.310Z,5.88
2023-05-13T00:09:43.113Z,6.75
2023-05-13T00:12:09.820Z,4.93
2023-05-13T00:14:37.202Z,5.28
2023-05-13T00:17:05.046Z,4.75
2023-05-13T00:19:32.087Z,6.35
2023-05-13T00:21:58.775Z,5.22
2023-05-13T00:24:25.708Z,5.43
2023-05-13T00:26:52.397Z,5.75
2023-05-13T00:29:19.165Z,5.10
2023-05-13T00:31:45.950Z,4.90
2023-05-13T00:34:12.761Z,6.85
2023-05-13T00:36:39.506Z,6.32
2023-05-13T00:39:06.215Z,5.57
2023-05-13T00:41:32.938Z,5.70
2023-05-13T00:44:00.044Z,6.38
2023-05-13T00:46:33.228Z,6.93
2023-05-13T00:49:01.270Z,6.18
2023-05-13T00:51:28.124Z,5.47
2023-05-13T00:53:56.734Z,6.53
2023-05-13T00:56:25.412Z,6.32
2023-05-13T00:58:52.473Z,5.20
2023-05-13T01:01:34.395Z,6.82
2023-05-13T01:04:17.469Z,6.25
2023-05-13T01:07:03.405Z,7.72
2023-05-13T01:09:57.183Z,8.00
2023-05-13T01:12:35.008Z,8.05
2023-05-13T01:15:09.004Z,4.57
2023-05-13T01:17:52.265Z,4.30
2023-05-13T01:20:22.787Z,5.15
2023-05-13T01:22:49.903Z,5.07
2023-05-13T01:25:16.796Z,4.60
2023-05-13T01:27:44.085Z,4.45
2023-05-13T01:30:11.758Z,4.80
2023-05-13T01:32:38.921Z,4.95
2023-05-13T01:35:07.696Z,4.75
2023-05-13T01:37:35.946Z,5.10
2023-05-13T01:40:05.885Z,5.78
2023-05-13T01:42:39.779Z,4.65
2023-05-13T01:45:07.480Z,4.88
2023-05-13T01:47:34.272Z,4.55
2023-05-13T01:50:01.146Z,5.45
2023-05-13T01:52:27.942Z,4.85
2023-05-13T01:54:54.662Z,4.32
2023-05-13T01:57:21.383Z,5.45
2023-05-13T01:59:48.080Z,5.43
2023-05-13T02:02:14.879Z,4.82
2023-05-13T02:04:42.050Z,6.43
2023-05-13T02:07:08.969Z,3.83
2023-05-13T02:09:35.941Z,6.93
2023-05-13T02:12:02.902Z,5.63
2023-05-13T02:14:29.761Z,7.13
2023-05-13T02:16:56.696Z,5.25
2023-05-13T02:19:25.052Z,6.78
2023-05-13T02:21:52.004Z,5.57
2023-05-13T02:26:45.354Z,6.80
2023-05-13T02:29:12.424Z,6.78
2023-05-13T02:31:39.497Z,3.92
2023-05-13T02:34:06.481Z,6.32
2023-05-13T02:36:33.449Z,5.15
2023-05-13T02:41:35.758Z,5.05
2023-05-13T02:44:02.726Z,5.68
2023-05-13T02:46:29.805Z,4.55
2023-05-13T02:48:56.875Z,4.65
2023-05-13T02:51:23.828Z,5.50
2023-05-13T02:53:51.865Z,4.00
2023-05-13T02:56:19.942Z,4.68
2023-05-13T02:58:47.203Z,7.32
2023-05-13T03:01:14.277Z,4.43
2023-05-13T03:03:41.379Z,3.40
2023-05-13T03:06:08.442Z,4.30
2023-05-13T03:08:35.409Z,4.57
2023-05-13T03:11:02.339Z,4.30
2023-05-13T03:13:29.420Z,4.35
2023-05-13T03:15:56.477Z,5.53
2023-05-13T03:18:23.478Z,4.57
2023-05-13T03:20:50.404Z,4.30
2023-05-13T03:23:17.332Z,5.07
2023-05-13T03:25:44.264Z,5.72
2023-05-13T03:28:11.191Z,5.35
2023-05-13T03:30:40.493Z,4.85
2023-05-13T03:33:07.643Z,4.75
2023-05-13T03:35:34.747Z,5.55
2023-05-13T03:38:01.899Z,4.18
2023-05-13T03:40:35.753Z,4.70
2023-05-13T03:43:02.822Z,5.32
2023-05-13T03:45:29.786Z,4.30
2023-05-13T03:47:56.990Z,6.07
2023-05-13T03:50:24.223Z,5.78
2023-05-13T03:52:51.493Z,7.13
2023-05-13T03:55:21.037Z,5.10
2023-05-13T03:57:49.550Z,6.45
2023-05-13T04:02:49.170Z,7.45
2023-05-13T04:05:16.472Z,5.47
2023-05-13T04:07:43.349Z,6.60
2023-05-13T04:10:13.030Z,5.93
2023-05-13T04:12:41.465Z,6.22
2023-05-13T04:15:08.708Z,7.32
2023-05-13T04:17:35.519Z,6.95
2023-05-13T04:20:02.388Z,5.78
2023-05-13T04:22:29.079Z,7.72
2023-05-13T04:24:57.318Z,6.57
2023-05-13T04:27:24.776Z,10.55
2023-05-13T04:29:51.684Z,5.95
2023-05-13T04:32:22.208Z,5.88
2023-05-13T04:34:49.517Z,5.93
2023-05-13T04:37:16.382Z,5.88
2023-05-13T04:39:45.092Z,6.85
2023-05-13T04:42:11.877Z,5.82
2023-05-13T04:44:38.641Z,5.50
2023-05-13T04:47:05.518Z,6.20
2023-05-13T04:49:32.368Z,5.55
2023-05-13T04:52:02.010Z,6.72
2023-05-13T04:54:28.733Z,7.55
2023-05-13T04:56:55.641Z,5.60
2023-05-13T04:59:22.995Z,5.28
2023-05-13T05:01:49.989Z,5.82
2023-05-13T05:04:16.830Z,6.05
2023-05-13T05:06:43.627Z,7.00
2023-05-13T05:09:10.852Z,4.93
2023-05-13T05:11:38.674Z,5.63
2023-05-13T05:14:05.457Z,5.53
2023-05-13T05:16:32.215Z,5.82
2023-05-13T05:18:59.433Z,6.32
2023-05-13T05:21:26.576Z,4.90
2023-05-13T05:23:53.544Z,6.68
2023-05-13T05:26:20.853Z,4.78
2023-05-13T05:28:47.577Z,6.63
2023-05-13T05:31:14.482Z,4.47
2023-05-13T05:33:41.885Z,3.85
2023-05-13T05:36:09.083Z,4.07
2023-05-13T05:38:35.982Z,3.92
2023-05-13T05:41:02.878Z,3.95
2023-05-13T05:43:29.714Z,3.47
2023-05-13T05:45:56.566Z,4.07
2023-05-13T05:48:23.353Z,2.47
2023-05-13T05:50:50.198Z,3.78
2023-05-13T05:53:16.931Z,3.28
2023-05-13T05:55:43.639Z,3.38
2023-05-13T05:58:14.613Z,2.75
2023-05-13T06:00:41.310Z,2.05
2023-05-13T06:03:08.312Z,2.65
2023-05-13T06:05:35.557Z,2.70
2023-05-13T06:08:02.523Z,4.22
2023-05-13T06:10:29.281Z,4.15
2023-05-13T06:12:56.230Z,5.30
2023-05-13T06:15:23.125Z,4.35
2023-05-13T06:17:49.836Z,3.88
2023-05-13T06:20:16.597Z,3.83
2023-05-13T06:22:43.333Z,4.97
2023-05-13T06:25:10.607Z,3.20
2023-05-13T06:27:37.358Z,3.47
2023-05-13T06:30:04.599Z,4.43
2023-05-13T06:32:31.349Z,4.63
2023-05-13T06:34:58.121Z,5.45
2023-05-13T06:37:24.874Z,7.65
2023-05-13T06:39:51.687Z,5.32
2023-05-13T06:42:18.394Z,5.28
2023-05-13T06:44:45.054Z,4.82
2023-05-13T06:47:16.079Z,6.20
2023-05-13T06:49:46.686Z,6.05
2023-05-13T06:52:13.753Z,7.13
2023-05-13T06:54:40.659Z,7.47
2023-05-13T06:57:07.662Z,5.70
2023-05-13T06:59:36.585Z,7.07
2023-05-13T07:02:03.612Z,6.60
2023-05-13T07:04:30.662Z,10.05
2023-05-13T07:06:57.803Z,8.30
2023-05-13T07:09:24.842Z,8.85
2023-05-13T07:11:51.892Z,7.47
2023-05-13T07:14:18.775Z,7.18
2023-05-13T07:16:54.732Z,9.38
2023-05-13T07:19:21.709Z,9.23
2023-05-13T07:21:48.684Z,7.18
2023-05-13T07:24:15.750Z,6.20
2023-05-13T07:26:42.701Z,9.65
2023-05-13T07:29:09.610Z,9.05
2023-05-13T07:31:36.608Z,8.98
2023-05-13T07:34:06.504Z,6.10
2023-05-13T07:39:00.023Z,10.63
2023-05-13T07:41:27.858Z,6.28
2023-05-13T07:43:54.662Z,9.23
2023-05-13T07:46:21.368Z,7.72
2023-05-13T07:48:48.617Z,7.03
2023-05-13T07:51:16.416Z,6.88
2023-05-13T07:53:43.507Z,7.22
2023-05-13T07:56:10.483Z,6.07
2023-05-13T07:58:37.397Z,6.43
2023-05-13T08:01:05.344Z,6.75
2023-05-13T08:03:32.206Z,7.38
2023-05-13T08:05:59.065Z,5.43
2023-05-13T08:08:25.801Z,6.25
2023-05-13T08:10:52.581Z,7.78
2023-05-13T08:13:21.554Z,10.60
2023-05-13T08:15:48.340Z,8.47
2023-05-13T08:18:15.507Z,6.20
2023-05-13T08:20:42.187Z,8.85
2023-05-13T08:23:09.988Z,8.43
2023-05-13T08:25:36.754Z,5.68
2023-05-13T08:28:03.891Z,6.43
2023-05-13T08:30:31.121Z,6.45
2023-05-13T08:32:58.065Z,6.78
2023-05-13T08:35:24.961Z,6.68
2023-05-13T08:37:51.940Z,6.43
2023-05-13T08:40:18.835Z,7.45
2023-05-13T08:42:50.278Z,8.23
2023-05-13T08:45:21.360Z,7.13
2023-05-13T08:47:55.807Z,7.95
2023-05-13T08:50:23.351Z,9.02
2023-05-13T08:52:51.903Z,10.18
2023-05-13T08:55:19.740Z,7.97
2023-05-13T08:57:46.841Z,10.13
2023-05-13T09:00:14.851Z,8.25
2023-05-13T09:02:51.251Z,10.32
2023-05-13T09:05:19.139Z,10.82
2023-05-13T09:07:55.805Z,11.85
2023-05-13T09:10:22.712Z,11.05
2023-05-13T09:12:54.386Z,10.02
2023-05-13T09:15:26.460Z,11.35
2023-05-13T09:18:05.893Z,9.55
2023-05-13T09:20:33.605Z,9.95
2023-05-13T09:23:04.123Z,10.15
2023-05-13T09:25:31.485Z,10.57
2023-05-13T09:28:00.591Z,14.27
2023-05-13T09:30:32.770Z,9.48
2023-05-13T09:33:11.623Z,11.82
2023-05-13T09:35:40.575Z,9.33
2023-05-13T09:38:27.836Z,11.05
2023-05-13T09:40:59.490Z,9.82
2023-05-13T09:43:29.101Z,8.65
2023-05-13T09:46:01.644Z,9.48
2023-05-13T09:48:30.249Z,10.43
2023-05-13T09:50:58.400Z,12.68
2023-05-13T09:53:28.801Z,9.43
2023-05-13T09:55:57.378Z,10.60
2023-05-13T09:58:29.231Z,9.43
2023-05-13T10:00:57.007Z,8.68
2023-05-13T10:03:25.450Z,10.90
2023-05-13T10:05:53.913Z,10.50
2023-05-13T10:08:22.786Z,10.18
2023-05-13T10:10:53.928Z,11.73
2023-05-13T10:13:25.221Z,10.43
2023-05-13T10:15:54.407Z,10.40
2023-05-13T10:18:23.958Z,11.68
2023-05-13T10:20:53.866Z,15.32
2023-05-13T10:23:22.825Z,8.40
2023-05-13T10:25:52.105Z,10.35
2023-05-13T10:28:19.418Z,10.10
2023-05-13T10:30:46.471Z,9.48
2023-05-13T10:33:14.163Z,11.15
2023-05-13T10:35:46.857Z,10.35
2023-05-13T10:38:20.736Z,8.98
2023-05-13T10:40:59.733Z,12.45
2023-05-13T10:43:31.161Z,14.13
2023-05-13T10:46:00.901Z,11.18
2023-05-13T10:53:44.798Z,12.15
2023-05-13T10:56:12.199Z,12.50
2023-05-13T10:58:39.428Z,12.05
2023-05-13T11:01:19.370Z,11.95
2023-05-13T11:03:54.581Z,12.88
2023-05-13T11:06:41.466Z,13.23
2023-05-13T11:09:13.260Z,13.35
2023-05-13T11:11:41.153Z,14.07
2023-05-13T11:14:19.444Z,14.70
2023-05-13T11:16:47.165Z,11.70
2023-05-13T11:19:21.807Z,14.18
2023-05-13T11:21:53.509Z,13.48
2023-05-13T11:24:22.116Z,17.00
2023-05-13T11:26:50.259Z,13.88
2023-05-13T11:29:33.987Z,15.50
2023-05-13T11:32:02.176Z,16.88
2023-05-13T11:34:29.905Z,12.93
2023-05-13T11:36:58.013Z,12.63
2023-05-13T11:39:28.288Z,15.10
2023-05-13T11:41:58.151Z,13.05
2023-05-13T11:46:53.137Z,13.50
2023-05-13T11:49:42.786Z,14.73
2023-05-13T11:52:11.991Z,13.13
2023-05-13T11:54:53.997Z,14.07
2023-05-13T11:57:23.172Z,11.63
2023-05-13T12:00:01.087Z,16.85
2023-05-13T12:02:37.611Z,16.15
2023-05-13T12:05:07.271Z,12.30
2023-05-13T12:07:35.164Z,12.20
2023-05-13T12:10:04.012Z,14.35
2023-05-13T12:12:33.458Z,12.93
2023-05-13T12:17:30.332Z,14.20
2023-05-13T12:20:19.285Z,12.73
2023-05-13T12:22:45.978Z,13.00
2023-05-13T12:25:32.999Z,12.57
2023-05-13T12:28:00.263Z,13.80
2023-05-13T12:30:34.146Z,15.00
2023-05-13T12:33:01.161Z,18.00
2023-05-13T12:35:27.940Z,13.55
2023-05-13T12:38:05.073Z,13.35
2023-05-13T12:40:32.716Z,11.90
2023-05-13T12:43:00.627Z,14.73
2023-05-13T12:45:29.566Z,16.75
2023-05-13T12:47:59.622Z,13.23
2023-05-13T12:50:27.002Z,14.38
2023-05-13T12:52:54.464Z,14.02
2023-05-13T12:55:21.596Z,16.23
2023-05-13T12:58:03.243Z,12.00
2023-05-13T13:00:31.060Z,14.70
2023-05-13T13:02:58.175Z,13.98
2023-05-13T13:05:25.817Z,15.40
2023-05-13T13:07:52.616Z,13.55
2023-05-13T13:10:19.511Z,13.10
2023-05-13T13:12:46.311Z,14.23
2023-05-13T13:15:13.263Z,16.42
2023-05-13T13:17:40.106Z,13.18
2023-05-13T13:20:07.749Z,14.70
2023-05-13T13:22:37.266Z,12.63
2023-05-13T13:25:07.743Z,10.65
2023-05-13T13:27:35.310Z,13.07
2023-05-13T13:30:02.588Z,10.52
2023-05-13T13:32:29.439Z,11.77
2023-05-13T13:34:58.216Z,12.32
2023-05-13T13:37:24.993Z,12.32
2023-05-13T13:39:51.834Z,13.35
2023-05-13T13:42:18.618Z,14.20
2023-05-13T13:44:45.409Z,14.32
2023-05-13T13:47:12.230Z,14.55
2023-05-13T13:49:38.971Z,11.65
2023-05-13T13:52:05.823Z,13.82
2023-05-13T13:54:32.542Z,13.32
2023-05-13T13:56:59.509Z,13.63
2023-05-13T13:59:26.287Z,15.48
2023-05-13T14:01:54.236Z,14.90
2023-05-13T14:04:23.746Z,12.40
2023-05-13T14:06:51.448Z,17.05
2023-05-13T14:09:18.795Z,15.27
2023-05-13T14:11:45.816Z,11.50
2023-05-13T14:14:12.669Z,14.32
2023-05-13T14:16:39.599Z,12.20
2023-05-13T14:19:06.416Z,12.90
2023-05-13T14:21:33.346Z,12.80
2023-05-13T14:24:00.140Z,17.90
2023-05-13T14:26:27.050Z,11.85
2023-05-13T14:28:54.290Z,10.27
2023-05-13T14:31:21.124Z,13.30
2023-05-13T14:33:47.966Z,13.50
2023-05-13T14:36:16.434Z,13.48
2023-05-13T14:38:43.872Z,15.70
2023-05-13T14:41:10.963Z,13.95
2023-05-13T14:43:37.786Z,13.15
2023-05-13T14:46:05.073Z,13.43
2023-05-13T14:48:31.832Z,12.55
2023-05-13T14:50:58.563Z,12.45
2023-05-13T14:53:25.377Z,14.85
2023-05-13T14:55:52.251Z,12.98
2023-05-13T14:58:19.175Z,13.73
2023-05-13T15:00:45.942Z,11.55
2023-05-13T15:03:12.967Z,11.57
2023-05-13T15:05:43.296Z,12.18
2023-05-13T15:08:10.901Z,13.68
2023-05-13T15:10:37.659Z,12.07
2023-05-13T15:13:04.477Z,13.85
2023-05-13T15:15:32.218Z,11.60
2023-05-13T15:17:59.221Z,12.65
2023-05-13T15:20:26.249Z,14.65
2023-05-13T15:22:53.002Z,14.50
2023-05-13T15:25:19.697Z,12.85
2023-05-13T15:27:46.930Z,13.60
2023-05-13T15:30:13.831Z,11.95
2023-05-13T15:32:40.657Z,11.60
2023-05-13T15:35:07.749Z,13.27
2023-05-13T15:37:34.494Z,11.35
2023-05-13T15:40:01.272Z,12.40
2023-05-13T15:42:28.874Z,10.30
2023-05-13T15:44:55.698Z,13.50
2023-05-13T15:47:22.554Z,12.43
2023-05-13T15:49:50.898Z,14.95
2023-05-13T15:52:17.623Z,13.63
2023-05-13T15:54:44.442Z,14.85
2023-05-13T15:57:11.327Z,11.98
2023-05-13T15:59:38.014Z,13.75
2023-05-13T16:02:05.104Z,14.98
2023-05-13T16:04:31.931Z,16.75
2023-05-13T16:06:58.698Z,18.52
2023-05-13T16:09:25.446Z,15.10
2023-05-13T16:11:52.262Z,15.85
2023-05-13T16:14:19.594Z,17.30
2023-05-13T16:16:46.566Z,17.80
2023-05-13T16:19:13.497Z,15.55
2023-05-13T16:21:41.989Z,14.68
2023-05-13T16:24:08.883Z,16.25
2023-05-13T16:26:35.651Z,15.02
2023-05-13T16:29:02.351Z,14.60
2023-05-13T16:31:29.182Z,17.10
2023-05-13T16:33:55.923Z,16.88
2023-05-13T16:36:23.110Z,15.20
2023-05-13T16:38:50.005Z,17.73
2023-05-13T16:41:16.708Z,20.20
2023-05-13T16:43:43.449Z,16.85
2023-05-13T16:46:10.214Z,20.27
2023-05-13T16:48:37.019Z,15.95
2023-05-13T16:51:04.054Z,16.90
2023-05-13T16:53:30.969Z,17.33
2023-05-13T16:55:57.741Z,16.40
2023-05-13T16:58:24.494Z,15.15
2023-05-13T17:00:52.495Z,14.55
2023-05-13T17:03:19.601Z,15.32
2023-05-13T17:05:46.367Z,14.40
2023-05-13T17:08:13.150Z,16.25
2023-05-13T17:10:40.040Z,13.52
2023-05-13T17:13:06.774Z,15.32
2023-05-13T17:15:33.558Z,15.75
2023-05-13T17:18:00.425Z,13.90
2023-05-13T17:20:27.234Z,13.13
2023-05-13T17:22:53.920Z,12.40
2023-05-13T17:25:20.714Z,11.18
2023-05-13T17:27:47.442Z,13.20
2023-05-13T17:30:14.841Z,12.18
2023-05-13T17:32:41.669Z,11.98
2023-05-13T17:35:08.883Z,13.35
2023-05-13T17:37:35.620Z,11.43
2023-05-13T17:40:02.850Z,13.60
2023-05-13T17:42:30.456Z,13.57
2023-05-13T17:44:57.250Z,12.65
2023-05-13T17:47:24.057Z,11.35
2023-05-13T17:49:50.791Z,13.38
2023-05-13T17:52:17.535Z,9.80
2023-05-13T17:54:44.262Z,15.35
2023-05-13T17:57:11.748Z,12.88
2023-05-13T17:59:38.794Z,11.68
2023-05-13T18:02:05.600Z,13.00
2023-05-13T18:04:32.448Z,15.75
2023-05-13T18:06:59.192Z,12.18
2023-05-13T18:09:26.005Z,15.63
2023-05-13T18:11:52.721Z,14.93
2023-05-13T18:14:19.516Z,13.90
2023-05-13T18:16:46.244Z,16.08
2023-05-13T18:19:13.090Z,20.05
2023-05-13T18:21:39.904Z,15.90
2023-05-13T18:24:07.162Z,17.63
2023-05-13T18:26:34.190Z,17.13
2023-05-13T18:29:01.055Z,18.55
2023-05-13T18:31:27.879Z,17.23
2023-05-13T18:33:54.650Z,19.60
2023-05-13T18:36:21.458Z,18.33
2023-05-13T18:38:48.203Z,18.23
2023-05-13T18:41:15.256Z,21.77
2023-05-13T18:43:42.022Z,19.08
2023-05-13T18:46:09.700Z,19.05
2023-05-13T18:48:36.653Z,21.55
2023-05-13T18:51:03.470Z,21.33
2023-05-13T18:53:30.295Z,24.23
2023-05-13T18:55:57.293Z,19.05
2023-05-13T18:58:24.198Z,20.95
2023-05-13T19:00:51.720Z,23.70
2023-05-13T19:03:18.612Z,18.85
2023-05-13T19:05:45.672Z,18.08
2023-05-13T19:08:12.445Z,22.13
2023-05-13T19:10:40.394Z,19.10
2023-05-13T19:13:07.543Z,19.67
2023-05-13T19:15:34.448Z,22.55
2023-05-13T19:18:01.735Z,17.63
2023-05-13T19:20:29.602Z,19.15
2023-05-13T19:22:56.395Z,16.95
2023-05-13T19:25:23.269Z,20.92
2023-05-13T19:27:50.135Z,17.00
2023-05-13T19:30:17.028Z,14.50
2023-05-13T19:32:44.091Z,17.20
2023-05-13T19:35:11.637Z,18.00
2023-05-13T19:37:38.683Z,16.98
2023-05-13T19:40:06.255Z,18.05
2023-05-13T19:42:33.102Z,16.77
2023-05-13T19:44:59.826Z,14.85
2023-05-13T19:47:27.460Z,14.15
2023-05-13T19:49:54.306Z,16.40
2023-05-13T19:52:20.996Z,15.95
2023-05-13T19:54:47.840Z,15.30
2023-05-13T19:57:14.501Z,16.55
2023-05-13T19:59:41.914Z,14.20
2023-05-13T20:02:09.382Z,14.63
2023-05-13T20:04:36.544Z,19.02
2023-05-13T20:07:04.216Z,21.30
2023-05-13T20:09:31.281Z,18.45
2023-05-13T20:12:01.969Z,15.25
2023-05-13T20:14:43.404Z,16.80
2023-05-13T20:17:10.529Z,14.32
2023-05-13T20:19:38.194Z,16.98
2023-05-13T20:22:05.109Z,16.55
2023-05-13T20:24:31.952Z,19.98
2023-05-13T20:26:58.862Z,18.05
2023-05-13T20:29:25.593Z,20.73
2023-05-13T20:31:52.698Z,18.48
2023-05-13T20:34:19.467Z,19.20
2023-05-13T20:36:46.383Z,19.63
2023-05-13T20:39:13.456Z,23.63
2023-05-13T20:41:40.216Z,20.75
2023-05-13T20:44:07.233Z,20.90
2023-05-13T20:46:34.204Z,20.60
2023-05-13T20:49:00.961Z,24.60
2023-05-13T20:51:27.658Z,19.63
2023-05-13T20:53:54.567Z,25.52
2023-05-13T20:56:22.203Z,27.35
2023-05-13T20:58:49.016Z,22.25
2023-05-13T21:01:15.905Z,20.67
2023-05-13T21:03:42.744Z,20.70
2023-05-13T21:06:09.723Z,23.50
2023-05-13T21:08:37.189Z,22.30
2023-05-13T21:11:04.245Z,25.88
2023-05-13T21:13:30.918Z,23.20
2023-05-13T21:15:57.828Z,24.38
2023-05-13T21:18:25.318Z,21.05
2023-05-13T21:20:52.998Z,21.15
2023-05-13T21:23:20.541Z,24.77
2023-05-13T21:25:47.430Z,23.45
2023-05-13T21:28:14.172Z,19.95
2023-05-13T21:30:42.232Z,21.13
2023-05-13T21:33:09.001Z,24.92
2023-05-13T21:35:35.967Z,19.40
2023-05-13T21:38:11.558Z,23.45
2023-05-13T21:40:39.038Z,24.00
2023-05-13T21:43:05.768Z,21.35
2023-05-13T21:45:32.581Z,22.92
2023-05-13T21:47:59.355Z,22.65
2023-05-13T21:50:26.141Z,20.02
2023-05-13T21:52:52.860Z,21.50
2023-05-13T21:55:19.570Z,21.13
2023-05-13T21:57:46.263Z,22.52
2023-05-13T22:00:16.274Z,17.80
2023-05-13T22:05:09.861Z,21.27
2023-05-13T22:07:36.705Z,23.08
2023-05-13T22:10:04.097Z,21.58
2023-05-13T22:12:30.923Z,21.40
2023-05-13T22:14:57.764Z,21.30
2023-05-13T22:17:24.762Z,23.08
2023-05-13T22:19:51.848Z,22.95
2023-05-13T22:22:18.794Z,23.08
2023-05-13T22:24:45.565Z,22.55
2023-05-13T22:27:12.353Z,24.42
2023-05-13T22:29:39.042Z,24.13
2023-05-13T22:32:06.212Z,23.77
2023-05-13T22:34:33.140Z,20.17
2023-05-13T22:37:01.621Z,25.63
2023-05-13T22:39:28.430Z,21.55
2023-05-13T22:41:55.865Z,22.67
2023-05-13T22:44:23.100Z,26.38
2023-05-13T22:46:50.013Z,22.48
2023-05-13T22:49:16.748Z,25.48
2023-05-13T22:51:43.538Z,21.88
2023-05-13T22:54:10.457Z,23.67
2023-05-13T22:56:37.175Z,23.02
2023-05-13T22:59:05.066Z,24.80
2023-05-13T23:03:47.300Z,22.20
2023-05-13T23:06:14.072Z,23.67
2023-05-13T23:08:40.776Z,23.40
2023-05-13T23:11:07.529Z,22.27
2023-05-13T23:13:34.343Z,21.38
2023-05-13T23:16:01.148Z,21.42
2023-05-13T23:18:28.171Z,24.20
2023-05-13T23:20:55.960Z,22.02
2023-05-13T23:23:23.349Z,20.10
2023-05-13T23:25:50.531Z,20.92
2023-05-13T23:28:17.633Z,22.02
2023-05-13T23:30:44.381Z,23.23
2023-05-13T23:33:11.131Z,21.10
2023-05-13T23:35:37.892Z,23.83
2023-05-13T23:38:04.710Z,21.70
2023-05-13T23:40:31.430Z,23.70
2023-05-13T23:42:58.230Z,23.90
2023-05-13T23:45:25.011Z,25.55
2023-05-13T23:47:51.817Z,24.05
2023-05-13T23:50:18.704Z,22.58
2023-05-13T23:52:45.686Z,22.88
2023-05-13T23:55:12.530Z,24.15
2023-05-13T23:57:39.383Z,21.70
